createdAt,value
2022-12-18T00:01:35.264Z,0.30
2022-12-18T00:04:05.654Z,0.33
2022-12-18T00:06:34.179Z,0.31
2022-12-18T00:09:02.689Z,0.25
2022-12-18T00:11:32.038Z,0.24
2022-12-18T00:14:00.590Z,0.22
2022-12-18T00:16:29.239Z,0.19
2022-12-18T00:18:58.539Z,0.15
2022-12-18T00:21:26.404Z,0.20
2022-12-18T00:23:53.807Z,0.22
2022-12-18T00:26:25.258Z,0.23
2022-12-18T00:28:53.366Z,0.19
2022-12-18T00:31:24.782Z,0.12
2022-12-18T00:33:54.151Z,0.09
2022-12-18T00:36:29.385Z,0.10
2022-12-18T00:38:59.200Z,0.08
2022-12-18T00:41:46.060Z,0.02
2022-12-18T00:44:16.105Z,0.05
2022-12-18T00:46:45.117Z,0.00
2022-12-18T00:49:12.841Z,-0.01
2022-12-18T00:51:40.097Z,-0.10
2022-12-18T00:54:07.362Z,-0.12
2022-12-18T00:56:39.368Z,-0.18
2022-12-18T00:59:13.039Z,-0.20
2022-12-18T01:01:40.395Z,-0.23
2022-12-18T01:04:07.821Z,-0.30
2022-12-18T01:06:36.818Z,-0.23
2022-12-18T01:09:04.602Z,-0.28
2022-12-18T01:11:32.134Z,-0.24
2022-12-18T01:14:00.449Z,-0.26
2022-12-18T01:16:27.577Z,-0.31
2022-12-18T01:18:56.117Z,-0.37
2022-12-18T01:21:25.126Z,-0.40
2022-12-18T01:23:55.394Z,-0.52
2022-12-18T01:26:23.568Z,-0.56
2022-12-18T01:28:50.730Z,-0.56
2022-12-18T01:31:24.656Z,-0.63
2022-12-18T01:33:53.434Z,-0.55
2022-12-18T01:36:23.618Z,-0.61
2022-12-18T01:38:51.813Z,-0.58
2022-12-18T01:41:48.626Z,-0.60
2022-12-18T01:45:00.959Z,-0.58
2022-12-18T01:47:54.832Z,-0.69
2022-12-18T01:50:25.654Z,-0.68
2022-12-18T01:53:04.257Z,-0.66
2022-12-18T01:55:39.679Z,-0.73
2022-12-18T01:58:06.976Z,-0.80
2022-12-18T02:00:34.104Z,-0.83
2022-12-18T02:03:01.822Z,-0.85
2022-12-18T02:05:56.703Z,-0.88
2022-12-18T02:08:43.161Z,-0.90
2022-12-18T02:11:21.874Z,-0.90
2022-12-18T02:14:10.686Z,-0.95
2022-12-18T02:17:12.275Z,-1.00
2022-12-18T02:20:23.922Z,-1.02
2022-12-18T02:22:58.097Z,-0.96
2022-12-18T02:25:52.543Z,-0.99
2022-12-18T02:28:23.745Z,-1.01
2022-12-18T02:30:54.616Z,-1.01
2022-12-18T02:33:23.747Z,-0.98
2022-12-18T02:35:53.721Z,-0.42
2022-12-18T02:38:21.045Z,3.10
2022-12-18T02:40:51.049Z,5.11
2022-12-18T02:43:18.219Z,6.71
2022-12-18T02:45:58.044Z,7.76
2022-12-18T02:48:36.186Z,8.74
2022-12-18T02:51:46.731Z,9.50
2022-12-18T02:54:25.850Z,9.94
2022-12-18T02:56:57.498Z,10.18
2022-12-18T02:59:58.223Z,10.43
2022-12-18T03:03:06.992Z,10.64
2022-12-18T03:05:57.753Z,10.75
2022-12-18T03:08:30.022Z,10.92
2022-12-18T03:11:10.955Z,11.02
2022-12-18T03:13:51.044Z,11.11
2022-12-18T03:16:28.665Z,11.17
2022-12-18T03:19:21.933Z,11.27
2022-12-18T03:21:58.268Z,11.36
2022-12-18T03:24:30.238Z,11.39
2022-12-18T03:27:03.925Z,11.45
2022-12-18T03:30:08.277Z,11.48
2022-12-18T03:33:08.279Z,11.51
2022-12-18T03:35:41.276Z,11.54
2022-12-18T03:38:08.975Z,11.59
2022-12-18T03:41:13.760Z,11.63
2022-12-18T03:44:01.909Z,11.68
2022-12-18T03:46:49.881Z,11.70
2022-12-18T03:49:51.677Z,11.71
2022-12-18T03:52:37.162Z,11.72
2022-12-18T03:55:06.490Z,11.78
2022-12-18T03:57:34.418Z,11.79
2022-12-18T04:00:13.417Z,11.83
2022-12-18T04:02:47.210Z,11.80
2022-12-18T04:05:15.400Z,11.85
2022-12-18T04:07:44.127Z,11.87
2022-12-18T04:10:13.392Z,11.91
2022-12-18T04:12:40.567Z,11.90
2022-12-18T04:15:09.354Z,11.93
2022-12-18T04:17:36.549Z,11.92
2022-12-18T04:20:04.407Z,11.93
2022-12-18T04:22:31.610Z,11.97
2022-12-18T04:24:58.780Z,11.95
2022-12-18T04:27:25.970Z,11.96
2022-12-18T04:29:53.177Z,11.94
2022-12-18T04:32:20.331Z,11.93
2022-12-18T04:34:47.490Z,11.84
2022-12-18T04:37:14.817Z,1.65
2022-12-18T04:39:42.009Z,-0.46
2022-12-18T04:42:09.108Z,2.68
2022-12-18T04:44:37.096Z,5.22
2022-12-18T04:47:04.462Z,6.96
2022-12-18T04:49:31.544Z,8.23
2022-12-18T04:51:58.691Z,9.10
2022-12-18T04:54:26.488Z,9.85
2022-12-18T04:56:53.714Z,10.28
2022-12-18T04:59:21.815Z,10.60
2022-12-18T05:01:49.126Z,10.84
2022-12-18T05:04:16.804Z,10.99
2022-12-18T05:06:45.246Z,11.12
2022-12-18T05:09:12.364Z,11.22
2022-12-18T05:11:39.621Z,11.29
2022-12-18T05:14:06.775Z,11.35
2022-12-18T05:16:34.009Z,11.42
2022-12-18T05:19:01.180Z,11.40
2022-12-18T05:21:28.286Z,11.39
2022-12-18T05:23:55.384Z,11.48
2022-12-18T05:26:22.507Z,11.48
2022-12-18T05:28:49.701Z,11.53
2022-12-18T05:31:17.125Z,11.61
2022-12-18T05:33:44.503Z,11.68
2022-12-18T05:36:12.715Z,11.70
2022-12-18T05:38:40.848Z,11.76
2022-12-18T05:41:09.650Z,11.82
2022-12-18T05:43:39.322Z,11.84
2022-12-18T05:46:10.029Z,11.89
2022-12-18T05:48:37.161Z,11.94
2022-12-18T05:51:08.305Z,11.99
2022-12-18T05:53:37.893Z,12.03
2022-12-18T05:56:08.757Z,12.04
2022-12-18T05:58:36.481Z,12.07
2022-12-18T06:01:16.831Z,12.10
2022-12-18T06:03:44.958Z,12.11
2022-12-18T06:06:24.721Z,12.13
2022-12-18T06:08:52.879Z,12.14
2022-12-18T06:11:26.437Z,12.18
2022-12-18T06:13:58.535Z,12.18
2022-12-18T06:16:27.841Z,12.20
2022-12-18T06:19:02.489Z,12.22
2022-12-18T06:21:30.594Z,12.25
2022-12-18T06:23:59.272Z,12.28
2022-12-18T06:26:28.521Z,12.30
2022-12-18T06:28:56.509Z,12.32
2022-12-18T06:31:23.886Z,12.36
2022-12-18T06:33:51.296Z,12.42
2022-12-18T06:36:18.861Z,12.49
2022-12-18T06:38:46.085Z,12.58
2022-12-18T06:41:20.242Z,3.85
2022-12-18T06:43:47.481Z,-0.85
2022-12-18T06:46:15.013Z,0.94
2022-12-18T06:48:42.552Z,4.44
2022-12-18T06:51:09.883Z,6.64
2022-12-18T06:53:37.226Z,8.38
2022-12-18T06:56:10.159Z,9.33
2022-12-18T06:58:39.478Z,9.98
2022-12-18T07:01:11.158Z,10.51
2022-12-18T07:03:43.799Z,10.89
2022-12-18T07:06:20.640Z,11.15
2022-12-18T07:08:48.989Z,11.25
2022-12-18T07:11:17.203Z,11.36
2022-12-18T07:13:44.767Z,11.48
2022-12-18T07:16:24.697Z,11.66
2022-12-18T07:18:55.600Z,11.76
2022-12-18T07:21:25.049Z,11.84
2022-12-18T07:23:52.635Z,11.99
2022-12-18T07:26:22.427Z,12.04
2022-12-18T07:28:50.604Z,12.11
2022-12-18T07:31:22.304Z,12.14
2022-12-18T07:33:51.201Z,12.14
2022-12-18T07:36:18.816Z,12.20
2022-12-18T07:38:49.838Z,12.22
2022-12-18T07:41:17.732Z,12.27
2022-12-18T07:43:45.180Z,12.34
2022-12-18T07:46:17.739Z,12.32
2022-12-18T07:48:46.218Z,12.37
2022-12-18T07:51:18.603Z,12.38
2022-12-18T07:53:45.865Z,12.35
2022-12-18T07:56:31.123Z,12.34
2022-12-18T07:59:00.127Z,12.43
2022-12-18T08:01:28.310Z,12.48
2022-12-18T08:03:55.618Z,12.51
2022-12-18T08:06:23.908Z,12.55
2022-12-18T08:08:56.797Z,12.57
2022-12-18T08:11:26.421Z,12.57
2022-12-18T08:13:54.326Z,12.63
2022-12-18T08:16:23.049Z,12.61
2022-12-18T08:18:52.275Z,12.62
2022-12-18T08:21:27.950Z,12.61
2022-12-18T08:23:58.176Z,12.58
2022-12-18T08:26:28.317Z,12.61
2022-12-18T08:28:57.178Z,12.65
2022-12-18T08:31:25.074Z,12.64
2022-12-18T08:33:53.908Z,12.66
2022-12-18T08:36:23.941Z,12.62
2022-12-18T08:38:52.054Z,12.60
2022-12-18T08:41:20.106Z,12.60
2022-12-18T08:44:06.342Z,12.57
2022-12-18T08:46:40.801Z,2.82
2022-12-18T08:49:09.523Z,-0.33
2022-12-18T08:51:37.151Z,2.16
2022-12-18T08:54:06.335Z,4.93
2022-12-18T08:56:35.062Z,6.89
2022-12-18T08:59:02.277Z,8.42
2022-12-18T09:01:29.662Z,9.52
2022-12-18T09:03:57.015Z,10.23
2022-12-18T09:06:24.932Z,10.68
2022-12-18T09:08:52.221Z,11.12
2022-12-18T09:11:26.400Z,11.32
2022-12-18T09:13:54.949Z,11.54
2022-12-18T09:16:26.127Z,11.62
2022-12-18T09:19:00.655Z,11.72
2022-12-18T09:21:36.768Z,11.88
2022-12-18T09:24:08.562Z,11.99
2022-12-18T09:26:36.127Z,12.02
2022-12-18T09:29:08.167Z,12.11
2022-12-18T09:31:35.771Z,12.11
2022-12-18T09:34:03.066Z,12.16
2022-12-18T09:36:30.287Z,12.19
2022-12-18T09:39:02.633Z,12.24
2022-12-18T09:41:55.689Z,12.30
2022-12-18T09:44:31.557Z,12.35
2022-12-18T09:47:12.122Z,12.35
2022-12-18T09:49:45.416Z,12.33
2022-12-18T09:52:45.435Z,12.32
2022-12-18T09:55:35.088Z,12.31
2022-12-18T09:58:41.235Z,12.35
2022-12-18T10:01:17.524Z,12.41
2022-12-18T10:03:44.731Z,12.40
2022-12-18T10:06:40.603Z,12.32
2022-12-18T10:09:21.545Z,12.32
2022-12-18T10:12:22.386Z,12.40
2022-12-18T10:15:03.921Z,12.45
2022-12-18T10:17:57.925Z,12.50
2022-12-18T10:21:14.608Z,12.51
2022-12-18T10:23:58.177Z,12.57
2022-12-18T10:26:26.265Z,12.61
2022-12-18T10:28:56.938Z,12.53
2022-12-18T10:31:26.642Z,12.51
2022-12-18T10:33:56.158Z,12.45
2022-12-18T10:36:28.137Z,12.47
2022-12-18T10:39:00.201Z,12.40
2022-12-18T10:41:29.253Z,12.44
2022-12-18T10:44:24.085Z,12.51
2022-12-18T10:46:59.331Z,12.51
2022-12-18T10:49:33.886Z,12.55
2022-12-18T10:52:16.313Z,2.67
2022-12-18T10:55:04.296Z,1.04
2022-12-18T10:57:42.540Z,0.73
2022-12-18T11:00:29.638Z,0.62
2022-12-18T11:02:57.974Z,0.57
2022-12-18T11:05:34.972Z,0.57
2022-12-18T11:08:02.552Z,0.55
2022-12-18T11:10:40.146Z,0.53
2022-12-18T11:13:23.074Z,0.53
2022-12-18T11:15:51.299Z,0.60
2022-12-18T11:18:32.913Z,0.57
2022-12-18T11:21:13.923Z,0.60
2022-12-18T11:23:54.941Z,0.71
2022-12-18T11:26:34.779Z,0.73
2022-12-18T11:29:18.911Z,0.78
2022-12-18T11:31:47.358Z,0.88
2022-12-18T11:34:31.549Z,0.94
2022-12-18T11:37:02.108Z,0.96
2022-12-18T11:39:59.210Z,0.99
2022-12-18T11:42:40.831Z,1.07
2022-12-18T11:45:14.042Z,1.01
2022-12-18T11:47:53.591Z,1.03
2022-12-18T11:50:46.016Z,1.08
2022-12-18T11:53:13.834Z,1.16
2022-12-18T11:55:49.724Z,1.07
2022-12-18T11:58:39.448Z,1.19
2022-12-18T12:01:36.497Z,1.26
2022-12-18T12:04:27.762Z,1.29
2022-12-18T12:07:19.297Z,1.34
2022-12-18T12:10:11.419Z,1.36
2022-12-18T12:13:16.812Z,1.41
2022-12-18T12:15:43.828Z,1.46
2022-12-18T12:18:44.745Z,1.45
2022-12-18T12:21:40.380Z,1.51
2022-12-18T12:24:43.075Z,1.50
2022-12-18T12:27:55.648Z,1.52
2022-12-18T12:30:57.800Z,1.54
2022-12-18T12:34:05.123Z,1.54
2022-12-18T12:37:08.525Z,1.60
2022-12-18T12:39:43.880Z,1.66
2022-12-18T12:42:57.391Z,1.65
2022-12-18T12:45:39.694Z,1.70
2022-12-18T12:48:17.692Z,1.71
2022-12-18T12:50:46.138Z,1.67
2022-12-18T12:53:31.653Z,1.69
2022-12-18T12:55:59.680Z,1.68
2022-12-18T12:59:12.001Z,1.70
2022-12-18T13:02:03.701Z,1.63
2022-12-18T13:04:44.815Z,1.68
2022-12-18T13:07:29.011Z,1.70
2022-12-18T13:10:31.710Z,1.70
2022-12-18T13:13:13.493Z,1.75
2022-12-18T13:16:09.162Z,1.71
2022-12-18T13:18:36.848Z,1.76
2022-12-18T13:21:28.385Z,1.79
2022-12-18T13:23:57.356Z,1.79
2022-12-18T13:26:28.802Z,1.77
2022-12-18T13:28:58.335Z,1.80
2022-12-18T13:31:31.930Z,1.78
2022-12-18T13:34:26.152Z,1.82
2022-12-18T13:37:00.468Z,1.90
2022-12-18T13:39:36.965Z,1.86
2022-12-18T13:42:07.406Z,1.89
2022-12-18T13:44:40.977Z,1.90
2022-12-18T13:47:39.037Z,1.94
2022-12-18T13:50:36.554Z,1.93
2022-12-18T13:53:06.024Z,1.93
2022-12-18T13:55:33.696Z,1.97
2022-12-18T13:58:07.676Z,2.03
2022-12-18T14:00:34.981Z,1.96
2022-12-18T14:03:02.704Z,2.01
2022-12-18T14:05:38.683Z,1.96
2022-12-18T14:08:12.521Z,2.02
2022-12-18T14:10:50.167Z,2.06
2022-12-18T14:13:32.567Z,2.02
2022-12-18T14:16:04.400Z,2.08
2022-12-18T14:19:15.905Z,2.03
2022-12-18T14:21:50.787Z,2.07
2022-12-18T14:24:22.152Z,2.06
2022-12-18T14:26:51.503Z,1.99
2022-12-18T14:29:24.780Z,2.01
2022-12-18T14:32:13.372Z,1.99
2022-12-18T14:34:48.523Z,1.96
2022-12-18T14:37:21.373Z,1.99
2022-12-18T14:40:07.125Z,2.01
2022-12-18T14:42:38.514Z,2.08
2022-12-18T14:46:00.536Z,1.85
2022-12-18T14:48:42.041Z,1.81
2022-12-18T14:51:25.323Z,1.69
2022-12-18T14:54:16.553Z,1.77
2022-12-18T14:56:48.314Z,1.90
2022-12-18T14:59:24.206Z,1.87
2022-12-18T15:03:22.398Z,1.81
2022-12-18T15:05:50.446Z,1.85
2022-12-18T15:08:40.639Z,1.84
2022-12-18T15:11:29.577Z,1.84
2022-12-18T15:13:59.041Z,1.84
2022-12-18T15:16:26.532Z,1.77
2022-12-18T15:18:54.605Z,1.78
2022-12-18T15:21:22.737Z,1.79
2022-12-18T15:23:52.593Z,1.72
2022-12-18T15:26:22.871Z,1.77
2022-12-18T15:28:59.576Z,1.80
2022-12-18T15:31:37.095Z,1.80
2022-12-18T15:34:13.895Z,1.86
2022-12-18T15:36:41.834Z,1.82
2022-12-18T15:39:13.891Z,1.82
2022-12-18T15:41:41.050Z,1.83
2022-12-18T15:44:26.494Z,1.84
2022-12-18T15:46:53.645Z,1.83
2022-12-18T15:49:20.897Z,1.89
2022-12-18T15:51:57.660Z,1.85
2022-12-18T15:54:43.265Z,-142.42
2022-12-18T15:57:26.335Z,1.85
2022-12-18T15:59:59.315Z,1.89
2022-12-18T16:02:29.518Z,-142.42
2022-12-18T16:04:58.012Z,1.84
2022-12-18T16:07:28.166Z,1.81
2022-12-18T16:09:58.942Z,1.81
2022-12-18T16:12:28.845Z,-142.42
2022-12-18T16:14:56.704Z,-142.42
2022-12-18T16:17:24.557Z,-142.42
2022-12-18T16:19:52.483Z,-142.42
2022-12-18T16:22:29.005Z,-142.42
2022-12-18T16:24:58.454Z,-142.42
2022-12-18T16:27:27.056Z,-142.42
2022-12-18T16:29:55.077Z,-142.42
2022-12-18T16:32:24.639Z,-142.42
2022-12-18T16:34:53.052Z,-142.42
2022-12-18T16:37:21.009Z,-142.42
2022-12-18T16:39:48.873Z,-142.42
2022-12-18T16:42:20.521Z,-142.42
2022-12-18T16:44:54.413Z,-142.42
2022-12-18T18:30:38.422Z,2.94
2022-12-18T23:46:53.140Z,-142.42
2022-12-18T23:49:20.800Z,-142.42
2022-12-18T23:51:47.836Z,-142.42
2022-12-18T23:54:14.901Z,-142.42
2022-12-18T23:56:42.218Z,-142.42
2022-12-18T23:59:09.591Z,-142.42
